Terminal Aerodrome Forecast
Issued by NWS

Home | Current Version | Previous Version | Graphics & Text | Print | Product List | Glossary On
Versions: 1 2 3 4 5 6 7 8 9 10 11 12 13 14 15 16
926
FTUS43 KMPX 282339
TAFAXN
TAF
KAXN 282339Z 2900/2924 10007KT P6SM SCT040 OVC060
     FM290600 05004KT P6SM SCT050 OVC100
     FM291500 07008KT P6SM BKN120=

USA.gov is the U.S. government's official web portal to all federal, state and local government web resources and services.